In Rescue
 
Open Full Screen Window  High Contrast Mode
Wind Gusting 00 knots
04
May 27, 2024 2:07 PM CDT
Present Weather: Light Drizzle
Weather Information
Wind Direction
  020 °
Wind Speed
  04 kt (5 mph)
Wind Gust
  00 kt (0 mph)
Altimeter
29.82 in
Visibility
10 SM
Temperature
13° C
55° F
Dewpoint
12° C
54° F
Humidity
94%
Sky Condition
Overcast @ 5,000 ft
Scattered @ 800 ft
VFR

METAR KXVG 271907Z AUTO 02004KT 10SM -DZ SCT008 OVC050 13/12 A2982 RMK AO2

FAA Disclaimer: The data displayed is for advisory purposes only and is not to be used for flight planning or operations.